Time;durP1;ratioP1;P1;durP2;ratioP2;P2;SDS_P1;SDS_P2;PMS_P1;PMS_P2;Temp;Humidity;BMP_temperature;BMP_pressure;BME280_temperature;BME280_humidity;BME280_pressure;Samples;Min_cycle;Max_cycle;Signal;HPM_P1;HPM_P2
2020/12/15 00:01:48;;;;;;;8.50;6.32;;;7.40;99.90;;;;;;5098681;28;20176;-63
2020/12/15 00:04:13;;;;;;;9.75;6.93;;;7.40;99.90;;;;;;5097646;28;20202;-63
2020/12/15 00:06:39;;;;;;;8.95;6.72;;;7.30;99.90;;;;;;5098435;28;20206;-64
2020/12/15 00:09:04;;;;;;;8.48;6.40;;;7.30;99.90;;;;;;5098706;28;20237;-63
2020/12/15 00:11:30;;;;;;;8.60;6.60;;;7.20;99.90;;;;;;5098713;28;20160;-63
2020/12/15 00:13:55;;;;;;;8.50;6.30;;;7.20;99.90;;;;;;5098591;28;20159;-63
2020/12/15 00:16:21;;;;;;;8.90;6.57;;;7.20;99.90;;;;;;5098606;28;20171;-63
2020/12/15 00:18:47;;;;;;;8.15;6.20;;;7.10;99.90;;;;;;5098392;28;20178;-63
2020/12/15 00:21:22;;;;;;;9.15;6.75;;;7.10;99.90;;;;;;5098285;28;20175;-63
2020/12/15 00:23:49;;;;;;;8.98;6.53;;;7.10;99.90;;;;;;5098390;28;20213;-63
2020/12/15 00:26:15;;;;;;;10.27;6.35;;;7.10;99.90;;;;;;5098341;28;20203;-63
2020/12/15 00:28:41;;;;;;;9.07;6.65;;;7.10;99.90;;;;;;5098353;28;20190;-63
2020/12/15 00:31:06;;;;;;;9.68;7.00;;;7.00;99.90;;;;;;5098045;28;20595;-63
2020/12/15 00:33:32;;;;;;;8.10;6.40;;;7.00;99.90;;;;;;5097939;28;20212;-64
2020/12/15 00:35:57;;;;;;;9.27;6.57;;;7.00;99.90;;;;;;5098285;28;20163;-64
2020/12/15 00:38:23;;;;;;;9.68;6.43;;;7.00;99.90;;;;;;5097867;28;20167;-64
2020/12/15 00:40:48;;;;;;;9.38;6.32;;;6.90;99.90;;;;;;5098402;28;20187;-63
2020/12/15 00:43:14;;;;;;;8.98;5.95;;;6.90;99.90;;;;;;5097987;28;20233;-64
2020/12/15 00:45:39;;;;;;;10.70;6.95;;;6.90;99.90;;;;;;5097697;28;20179;-63
2020/12/15 00:48:05;;;;;;;8.88;6.45;;;6.90;99.90;;;;;;5097696;28;20192;-63
2020/12/15 00:50:30;;;;;;;8.02;6.03;;;6.90;99.90;;;;;;5097313;28;20195;-63
2020/12/15 00:52:56;;;;;;;9.70;6.65;;;6.90;99.90;;;;;;5097795;28;20174;-63
2020/12/15 00:55:22;;;;;;;8.57;6.22;;;6.90;99.90;;;;;;5097737;28;20192;-63
2020/12/15 00:57:48;;;;;;;10.43;6.43;;;6.90;99.90;;;;;;5098126;28;20190;-63
2020/12/15 01:00:13;;;;;;;9.27;6.78;;;6.90;99.90;;;;;;5097525;28;20622;-63
2020/12/15 01:02:40;;;;;;;8.65;6.40;;;6.90;99.90;;;;;;5098292;28;20171;-64
2020/12/15 01:05:05;;;;;;;10.38;6.70;;;6.90;99.90;;;;;;5097375;28;20187;-62
2020/12/15 01:07:31;;;;;;;8.82;6.78;;;6.90;99.90;;;;;;5097394;28;20627;-63
2020/12/15 01:09:57;;;;;;;10.25;6.32;;;7.00;99.90;;;;;;5097232;28;20164;-64
2020/12/15 01:12:22;;;;;;;7.38;5.80;;;7.00;99.90;;;;;;5097537;28;20177;-63
2020/12/15 01:14:48;;;;;;;9.25;6.25;;;7.00;99.90;;;;;;5097165;28;20588;-63
2020/12/15 01:17:14;;;;;;;8.77;5.50;;;7.00;99.90;;;;;;5097228;28;20172;-62
2020/12/15 01:19:40;;;;;;;8.43;6.55;;;6.90;99.90;;;;;;5097329;28;20175;-63
2020/12/15 01:22:05;;;;;;;8.65;6.35;;;6.90;99.90;;;;;;5097124;28;20557;-62
2020/12/15 01:24:31;;;;;;;9.82;6.63;;;6.90;99.90;;;;;;5097173;28;20176;-63
2020/12/15 01:26:56;;;;;;;7.78;6.30;;;6.90;99.90;;;;;;5096060;28;20194;-63
2020/12/15 01:29:22;;;;;;;8.73;5.82;;;6.90;99.90;;;;;;5096942;28;20163;-64
2020/12/15 01:31:47;;;;;;;8.32;5.95;;;6.90;99.90;;;;;;5097224;28;20293;-64
2020/12/15 01:34:13;;;;;;;8.20;6.28;;;6.90;99.90;;;;;;5099149;28;20585;-63
2020/12/15 01:36:38;;;;;;;9.38;6.53;;;7.00;99.90;;;;;;5099143;28;20577;-63
2020/12/15 01:39:04;;;;;;;9.93;6.15;;;7.00;99.90;;;;;;5101381;28;20616;-63
2020/12/15 01:41:29;;;;;;;9.20;6.28;;;7.00;99.90;;;;;;5100272;28;20608;-64
2020/12/15 01:43:58;;;;;;;9.02;6.82;;;7.00;99.90;;;;;;5105471;28;20163;-63
2020/12/15 01:46:24;;;;;;;8.35;6.22;;;7.00;99.90;;;;;;5106145;28;20242;-63
2020/12/15 01:48:50;;;;;;;8.13;6.03;;;7.00;99.90;;;;;;5100811;28;20288;-64
2020/12/15 01:51:16;;;;;;;8.02;6.03;;;7.00;99.90;;;;;;5095587;28;20532;-63
2020/12/15 01:53:44;;;;;;;9.05;6.10;;;7.00;99.90;;;;;;5095854;28;20159;-62
2020/12/15 01:56:10;;;;;;;8.13;6.18;;;7.00;99.90;;;;;;5096369;28;20164;-63
2020/12/15 01:58:36;;;;;;;8.05;6.50;;;7.00;99.90;;;;;;5096701;28;20168;-63
2020/12/15 02:01:02;;;;;;;8.77;6.38;;;7.00;99.90;;;;;;5077692;28;20163;-62
2020/12/15 02:03:27;;;;;;;12.90;7.28;;;7.00;99.90;;;;;;5096248;28;20595;-62
2020/12/15 02:05:53;;;;;;;10.60;6.88;;;7.00;99.90;;;;;;5096081;28;20171;-63
2020/12/15 02:08:18;;;;;;;10.40;6.90;;;7.00;99.90;;;;;;5096193;28;20203;-62
2020/12/15 02:10:44;;;;;;;9.93;7.03;;;6.90;99.90;;;;;;5095187;28;20167;-63
2020/12/15 02:13:09;;;;;;;8.88;6.35;;;6.90;99.90;;;;;;5095229;28;20312;-63
2020/12/15 02:15:35;;;;;;;9.27;6.82;;;6.80;99.90;;;;;;5096092;28;20163;-63
2020/12/15 02:18:00;;;;;;;11.20;7.18;;;6.80;99.90;;;;;;5096462;28;20178;-63
2020/12/15 02:20:27;;;;;;;10.75;7.13;;;6.70;99.90;;;;;;5096087;28;20217;-63
2020/12/15 02:22:52;;;;;;;9.65;7.32;;;6.60;99.90;;;;;;5095865;28;20163;-62
2020/12/15 02:25:18;;;;;;;8.73;6.90;;;6.60;99.90;;;;;;5095773;28;20230;-62
2020/12/15 02:27:43;;;;;;;10.43;6.97;;;6.50;99.90;;;;;;5095735;28;20199;-62
2020/12/15 02:30:09;;;;;;;9.52;7.32;;;6.50;99.90;;;;;;5095670;28;20626;-62
2020/12/15 02:32:35;;;;;;;10.77;7.65;;;6.40;99.90;;;;;;5095977;28;20171;-63
2020/12/15 02:35:01;;;;;;;10.55;7.32;;;6.40;99.90;;;;;;5095776;28;20163;-62
2020/12/15 02:37:26;;;;;;;9.50;7.30;;;6.40;99.90;;;;;;5095692;28;20163;-63
2020/12/15 02:39:59;;;;;;;10.52;7.32;;;6.40;99.90;;;;;;5095770;28;20160;-62
2020/12/15 02:42:29;;;;;;;10.98;7.78;;;6.40;99.90;;;;;;5095892;28;20156;-62
2020/12/15 02:44:54;;;;;;;11.50;7.82;;;6.40;99.90;;;;;;5095589;28;20182;-62
2020/12/15 02:47:20;;;;;;;9.80;7.35;;;6.40;99.90;;;;;;5095741;28;20191;-63
2020/12/15 02:49:45;;;;;;;10.95;7.38;;;6.50;99.90;;;;;;5094450;28;20171;-63
2020/12/15 02:52:11;;;;;;;13.10;7.85;;;6.50;99.90;;;;;;5094549;28;20618;-63
2020/12/15 02:54:36;;;;;;;10.52;7.63;;;6.50;99.90;;;;;;5095601;28;20171;-63
2020/12/15 02:57:02;;;;;;;11.00;8.23;;;6.50;99.90;;;;;;5095544;28;20168;-62
2020/12/15 02:59:28;;;;;;;10.30;7.60;;;6.60;99.90;;;;;;5094723;28;20249;-62
2020/12/15 03:01:53;;;;;;;11.27;7.18;;;6.60;99.90;;;;;;5095172;28;20225;-63
2020/12/15 03:04:19;;;;;;;9.35;7.50;;;6.60;99.90;;;;;;5095230;28;20179;-63
2020/12/15 03:06:44;;;;;;;10.95;7.38;;;6.60;99.90;;;;;;5095258;28;20223;-62
2020/12/15 03:09:10;;;;;;;8.82;7.07;;;6.60;99.90;;;;;;5095102;28;20500;-62
2020/12/15 03:11:36;;;;;;;12.38;7.50;;;6.60;99.90;;;;;;5095261;28;20475;-62
2020/12/15 03:14:02;;;;;;;11.73;7.10;;;6.60;99.90;;;;;;5095101;28;20164;-62
2020/12/15 03:16:28;;;;;;;12.00;7.45;;;6.50;99.90;;;;;;5095219;28;20167;-63
2020/12/15 03:18:54;;;;;;;10.18;7.63;;;6.50;99.90;;;;;;5095036;28;20254;-63
2020/12/15 03:21:20;;;;;;;12.20;7.90;;;6.50;99.90;;;;;;5094893;28;20171;-63
2020/12/15 03:23:46;;;;;;;11.63;8.00;;;6.50;99.90;;;;;;5095270;28;20570;-63
2020/12/15 03:26:12;;;;;;;9.98;7.28;;;6.50;99.90;;;;;;5094783;28;20195;-62
2020/12/15 03:28:37;;;;;;;12.57;8.63;;;6.50;99.90;;;;;;5095487;28;20181;-63
2020/12/15 03:31:03;;;;;;;12.15;7.93;;;6.50;99.90;;;;;;5095245;28;20160;-63
2020/12/15 03:33:28;;;;;;;10.38;7.38;;;6.50;99.90;;;;;;5094835;28;20163;-63
2020/12/15 03:35:54;;;;;;;12.40;8.25;;;6.50;99.90;;;;;;5094737;28;20163;-63
2020/12/15 03:38:20;;;;;;;13.68;7.85;;;6.50;99.90;;;;;;5095141;28;20210;-63
2020/12/15 03:40:45;;;;;;;10.52;7.78;;;6.50;99.90;;;;;;5095026;28;20191;-63
2020/12/15 03:43:11;;;;;;;10.02;7.20;;;6.50;99.90;;;;;;5095028;28;20179;-63
2020/12/15 03:45:36;;;;;;;10.35;7.88;;;6.50;99.90;;;;;;5094745;28;20187;-63
2020/12/15 03:48:02;;;;;;;9.73;7.57;;;6.60;99.90;;;;;;5094905;28;20201;-63
2020/12/15 03:50:27;;;;;;;10.23;7.50;;;6.60;99.90;;;;;;5094869;28;20198;-62
2020/12/15 03:52:53;;;;;;;9.13;7.25;;;6.60;99.90;;;;;;5094930;28;20206;-63
2020/12/15 03:55:21;;;;;;;9.77;7.35;;;6.60;99.90;;;;;;5094895;28;20267;-63
2020/12/15 03:57:48;;;;;;;9.48;6.88;;;6.60;99.90;;;;;;5094879;28;20175;-63
2020/12/15 04:00:14;;;;;;;9.23;7.22;;;6.60;99.90;;;;;;5094573;28;20680;-63
2020/12/15 04:02:40;;;;;;;9.65;7.13;;;6.60;99.90;;;;;;5094519;28;20181;-63
2020/12/15 04:05:05;;;;;;;11.40;7.47;;;6.60;99.90;;;;;;5094879;28;20500;-62
2020/12/15 04:07:30;;;;;;;9.77;7.13;;;6.60;99.90;;;;;;5094398;28;20244;-62
2020/12/15 04:09:56;;;;;;;11.02;6.85;;;6.60;99.90;;;;;;5095069;28;20228;-62
2020/12/15 04:12:21;;;;;;;9.63;7.47;;;6.50;99.90;;;;;;5094445;28;20607;-62
2020/12/15 04:14:47;;;;;;;8.90;7.07;;;6.50;99.90;;;;;;5094487;28;20179;-62
2020/12/15 04:17:12;;;;;;;10.48;7.18;;;6.50;99.90;;;;;;5094295;28;20182;-63
2020/12/15 04:19:38;;;;;;;9.13;7.25;;;6.50;99.90;;;;;;5094408;28;20539;-62
2020/12/15 04:22:04;;;;;;;9.48;6.38;;;6.50;99.90;;;;;;5094323;28;20181;-62
2020/12/15 04:24:30;;;;;;;9.57;7.43;;;6.60;99.90;;;;;;5095305;28;20167;-62
2020/12/15 04:26:56;;;;;;;8.77;6.53;;;6.60;99.90;;;;;;5097970;28;20229;-62
2020/12/15 04:29:22;;;;;;;12.10;7.55;;;6.60;99.90;;;;;;5098168;28;20167;-63
2020/12/15 04:31:48;;;;;;;10.40;7.00;;;6.60;99.90;;;;;;5097016;28;20171;-62
2020/12/15 04:34:13;;;;;;;8.52;6.65;;;6.60;99.90;;;;;;5097166;28;20164;-62
2020/12/15 04:36:38;;;;;;;9.68;7.03;;;6.60;99.90;;;;;;5097888;28;20168;-62
2020/12/15 04:39:04;;;;;;;10.68;7.05;;;6.60;99.90;;;;;;5097968;28;20649;-62
2020/12/15 04:41:30;;;;;;;9.57;7.10;;;6.60;99.90;;;;;;5098129;28;20208;-63
2020/12/15 04:43:56;;;;;;;9.60;7.53;;;6.60;99.90;;;;;;5098023;28;20168;-63
2020/12/15 04:46:22;;;;;;;10.40;7.22;;;6.60;99.90;;;;;;5096854;28;20199;-63
2020/12/15 04:48:56;;;;;;;8.80;7.13;;;6.70;99.90;;;;;;5097208;28;20190;-63
2020/12/15 04:51:25;;;;;;;9.93;7.25;;;6.70;99.90;;;;;;5097261;28;20155;-62
2020/12/15 04:53:53;;;;;;;10.05;7.13;;;6.70;99.90;;;;;;5098208;28;20263;-63
2020/12/15 04:56:32;;;;;;;11.82;6.97;;;6.70;99.90;;;;;;5097569;28;20168;-63
2020/12/15 04:58:59;;;;;;;9.95;6.88;;;6.70;99.90;;;;;;5097550;28;20603;-63
2020/12/15 05:01:26;;;;;;;9.77;6.90;;;6.70;99.90;;;;;;5097393;28;20160;-63
2020/12/15 05:03:52;;;;;;;9.75;6.80;;;6.70;99.90;;;;;;5097504;28;20250;-64
2020/12/15 05:06:27;;;;;;;9.27;7.07;;;6.70;99.90;;;;;;5097480;28;20195;-63
2020/12/15 05:08:53;;;;;;;8.68;6.70;;;6.70;99.90;;;;;;5097605;28;20162;-64
2020/12/15 05:11:19;;;;;;;10.52;7.22;;;6.70;99.90;;;;;;5097426;28;20167;-63
2020/12/15 05:13:44;;;;;;;8.52;7.03;;;6.70;99.90;;;;;;5097414;28;20535;-62
2020/12/15 05:16:10;;;;;;;8.68;6.78;;;6.70;99.90;;;;;;5097119;28;20179;-63
2020/12/15 05:18:35;;;;;;;9.43;7.32;;;6.70;99.90;;;;;;5079142;28;20171;-63
2020/12/15 05:21:15;;;;;;;9.63;7.30;;;6.70;99.90;;;;;;5096987;28;20168;-62
2020/12/15 05:23:50;;;;;;;9.30;7.10;;;6.70;99.90;;;;;;5097232;28;20156;-63
2020/12/15 05:26:26;;;;;;;9.63;7.82;;;6.70;99.90;;;;;;5096986;28;20224;-63
2020/12/15 05:29:08;;;;;;;12.07;7.53;;;6.70;99.90;;;;;;5097070;28;20512;-62
2020/12/15 05:31:39;;;;;;;10.65;7.78;;;6.70;99.90;;;;;;5097249;28;20246;-62
2020/12/15 05:34:05;;;;;;;9.18;7.63;;;6.80;99.90;;;;;;5097167;28;20489;-63
2020/12/15 05:36:31;;;;;;;10.77;7.38;;;6.80;99.90;;;;;;5096992;28;20171;-62
2020/12/15 05:39:08;;;;;;;9.57;7.38;;;6.80;99.90;;;;;;5096690;28;20163;-63
2020/12/15 05:41:34;;;;;;;10.20;7.60;;;6.80;99.90;;;;;;5098766;28;20236;-63
2020/12/15 05:44:01;;;;;;;10.15;7.75;;;6.80;99.90;;;;;;5100430;28;20168;-63
2020/12/15 05:46:33;;;;;;;11.85;7.53;;;6.80;99.90;;;;;;5098229;28;20206;-63
2020/12/15 05:49:06;;;;;;;9.60;7.40;;;6.80;99.90;;;;;;5105196;28;20167;-63
2020/12/15 05:51:42;;;;;;;10.50;7.75;;;6.80;99.90;;;;;;5102534;28;20178;-63
2020/12/15 05:54:13;;;;;;;9.88;7.80;;;6.80;99.90;;;;;;5108244;28;20159;-62
2020/12/15 05:56:40;;;;;;;8.73;7.35;;;6.80;99.90;;;;;;5108584;28;20209;-63
2020/12/15 05:59:32;;;;;;;9.23;7.60;;;6.80;99.90;;;;;;5098355;28;20167;-63
2020/12/15 06:02:08;;;;;;;11.02;7.68;;;6.80;99.90;;;;;;5094760;28;20192;-62
2020/12/15 06:04:35;;;;;;;10.77;8.00;;;6.80;99.90;;;;;;5096399;28;20147;-62
2020/12/15 06:07:02;;;;;;;10.27;7.63;;;6.80;99.90;;;;;;5096085;28;20194;-63
2020/12/15 06:09:29;;;;;;;8.82;7.38;;;6.80;99.90;;;;;;5095555;28;20494;-63
2020/12/15 06:11:54;;;;;;;10.05;7.43;;;6.70;99.90;;;;;;5096356;28;20156;-63
2020/12/15 06:14:20;;;;;;;10.18;7.60;;;6.70;99.90;;;;;;5096188;28;20174;-63
2020/12/15 06:16:45;;;;;;;10.48;7.72;;;6.70;99.90;;;;;;5095110;28;20186;-64
2020/12/15 06:19:12;;;;;;;12.18;7.88;;;6.70;99.90;;;;;;5096189;28;20167;-62
2020/12/15 06:21:55;;;;;;;10.27;7.47;;;6.70;99.90;;;;;;5096164;28;20167;-63
2020/12/15 06:24:27;;;;;;;10.13;7.60;;;6.70;99.90;;;;;;5095967;28;20155;-63
2020/12/15 06:26:55;;;;;;;10.52;7.53;;;6.70;99.90;;;;;;5096115;28;20202;-63
2020/12/15 06:29:30;;;;;;;9.77;7.68;;;6.70;99.90;;;;;;5095761;28;20155;-63
2020/12/15 06:31:56;;;;;;;10.98;7.30;;;6.70;99.90;;;;;;5096119;28;20182;-63
2020/12/15 06:34:26;;;;;;;10.43;7.90;;;6.70;99.90;;;;;;5095932;28;20260;-62
2020/12/15 06:36:55;;;;;;;10.10;8.00;;;6.70;99.90;;;;;;5095776;28;20171;-62
2020/12/15 06:39:20;;;;;;;12.00;7.72;;;6.70;99.90;;;;;;5095890;28;20168;-62
2020/12/15 06:41:55;;;;;;;10.15;6.97;;;6.70;99.90;;;;;;5095856;28;20167;-63
2020/12/15 06:44:30;;;;;;;9.80;7.65;;;6.70;99.90;;;;;;5095843;28;20258;-62
2020/12/15 06:46:55;;;;;;;12.52;8.38;;;6.70;99.90;;;;;;5095050;28;20252;-63
2020/12/15 06:49:35;;;;;;;10.20;7.78;;;6.70;99.90;;;;;;5094456;28;20179;-63
2020/12/15 06:52:06;;;;;;;10.88;7.85;;;6.70;99.90;;;;;;5095752;28;20486;-61
2020/12/15 06:54:34;;;;;;;10.45;7.55;;;6.70;99.90;;;;;;5095638;28;20159;-62
2020/12/15 06:57:07;;;;;;;9.45;7.50;;;6.70;99.90;;;;;;5095671;28;20216;-61
2020/12/15 06:59:36;;;;;;;9.55;7.50;;;6.70;99.90;;;;;;5095271;28;20599;-63
2020/12/15 07:02:10;;;;;;;9.85;7.63;;;6.70;99.90;;;;;;5095476;28;20498;-62
2020/12/15 07:04:46;;;;;;;10.30;8.18;;;6.70;99.90;;;;;;5095425;28;20178;-63
2020/12/15 07:07:13;;;;;;;11.05;7.90;;;6.70;99.90;;;;;;5095368;28;20225;-62
2020/12/15 07:09:39;;;;;;;13.15;8.25;;;6.70;99.90;;;;;;5095373;28;20505;-62
2020/12/15 07:12:15;;;;;;;10.32;8.05;;;6.70;99.90;;;;;;5095095;28;20174;-62
2020/12/15 07:14:49;;;;;;;11.43;8.20;;;6.70;99.90;;;;;;5094993;28;20156;-62
2020/12/15 07:17:15;;;;;;;9.38;7.50;;;6.70;99.90;;;;;;5094752;28;20529;-62
2020/12/15 07:19:41;;;;;;;12.52;8.07;;;6.80;99.90;;;;;;5094727;28;20177;-62
2020/12/15 07:22:06;;;;;;;9.60;7.43;;;6.80;99.90;;;;;;5094574;28;20489;-62
2020/12/15 07:24:32;;;;;;;9.45;7.20;;;6.80;99.90;;;;;;5095142;28;20175;-62
2020/12/15 07:27:01;;;;;;;9.52;7.22;;;6.80;99.90;;;;;;5095043;28;20202;-62
2020/12/15 07:29:27;;;;;;;9.73;7.18;;;6.80;99.90;;;;;;5094774;28;20613;-63
2020/12/15 07:31:53;;;;;;;10.57;7.43;;;6.80;99.90;;;;;;5095208;28;20176;-63
2020/12/15 07:34:18;;;;;;;10.35;7.65;;;6.90;99.90;;;;;;5093831;28;20190;-64
2020/12/15 07:36:49;;;;;;;9.52;7.47;;;6.90;99.90;;;;;;5094839;28;20622;-62
2020/12/15 07:39:15;;;;;;;10.43;7.75;;;6.90;99.90;;;;;;5094638;28;20183;-63
2020/12/15 07:41:41;;;;;;;9.48;6.95;;;6.90;99.90;;;;;;5094561;28;20232;-64
2020/12/15 07:44:09;;;;;;;9.77;7.90;;;6.90;99.90;;;;;;5094702;28;20569;-63
2020/12/15 07:46:35;;;;;;;11.35;7.60;;;6.90;99.90;;;;;;5094593;28;20282;-63
2020/12/15 07:49:03;;;;;;;11.40;7.32;;;6.90;99.90;;;;;;5094472;28;20237;-63
2020/12/15 07:51:32;;;;;;;9.52;7.05;;;6.90;99.90;;;;;;5094813;28;20164;-63
2020/12/15 07:53:59;;;;;;;9.60;7.28;;;6.90;99.90;;;;;;5094513;28;20175;-62
2020/12/15 07:56:28;;;;;;;9.07;7.25;;;6.90;99.90;;;;;;5094672;28;20182;-57
2020/12/15 07:58:54;;;;;;;9.55;7.50;;;6.90;99.90;;;;;;5094302;28;20182;-58
2020/12/15 08:01:24;;;;;;;9.68;6.78;;;6.90;99.90;;;;;;5098585;28;20167;-57
2020/12/15 08:03:59;;;;;;;10.60;7.65;;;6.90;99.90;;;;;;5099120;28;20186;-57
2020/12/15 08:06:26;;;;;;;11.20;7.32;;;6.90;99.90;;;;;;5098448;28;20638;-58
2020/12/15 08:08:52;;;;;;;8.82;7.18;;;6.90;99.90;;;;;;5098563;28;20533;-58
2020/12/15 08:11:20;;;;;;;8.80;6.82;;;6.90;99.90;;;;;;5097738;28;20167;-58
2020/12/15 08:13:49;;;;;;;9.70;7.10;;;6.90;99.90;;;;;;5098575;28;20164;-58
2020/12/15 08:16:15;;;;;;;9.77;7.72;;;6.90;99.90;;;;;;5098667;28;20168;-58
2020/12/15 08:18:42;;;;;;;10.70;7.35;;;6.90;99.90;;;;;;5098649;28;20559;-62
2020/12/15 08:21:14;;;;;;;11.30;7.47;;;6.90;99.90;;;;;;5098339;28;20232;-63
2020/12/15 08:23:50;;;;;;;9.68;7.05;;;6.90;99.90;;;;;;5098200;28;20569;-63
2020/12/15 08:26:17;;;;;;;9.95;6.75;;;6.90;99.90;;;;;;5098423;28;20148;-62
2020/12/15 08:28:44;;;;;;;9.95;7.07;;;6.90;99.90;;;;;;5097496;28;20181;-64
2020/12/15 08:31:10;;;;;;;8.55;6.70;;;6.90;99.90;;;;;;5098447;28;20197;-63
2020/12/15 08:33:36;;;;;;;9.25;7.55;;;6.90;99.90;;;;;;5098203;28;20164;-63
2020/12/15 08:36:02;;;;;;;10.57;7.85;;;7.00;99.90;;;;;;5098337;28;20160;-63
2020/12/15 08:38:28;;;;;;;12.27;7.07;;;7.00;99.90;;;;;;5097792;28;20504;-63
2020/12/15 08:40:59;;;;;;;10.70;7.50;;;7.00;99.90;;;;;;5098090;28;20186;-63
2020/12/15 08:43:24;;;;;;;8.82;7.00;;;6.90;99.90;;;;;;5097275;28;20556;-62
2020/12/15 08:45:51;;;;;;;12.07;7.38;;;6.90;99.90;;;;;;5097445;28;20301;-64
2020/12/15 08:48:19;;;;;;;24.73;7.80;;;6.90;99.90;;;;;;5097825;28;20517;-62
2020/12/15 08:50:44;;;;;;;8.95;6.82;;;7.00;99.90;;;;;;5097756;28;20205;-64
2020/12/15 08:53:14;;;;;;;8.60;7.22;;;7.00;99.90;;;;;;5097891;28;20717;-63
2020/12/15 08:55:40;;;;;;;10.20;7.25;;;7.00;99.90;;;;;;5097756;28;20187;-63
2020/12/15 08:58:06;;;;;;;10.73;7.43;;;7.00;99.90;;;;;;5097486;28;20587;-63
2020/12/15 09:00:33;;;;;;;9.25;7.40;;;7.00;99.90;;;;;;5097462;28;20172;-63
2020/12/15 09:03:13;;;;;;;10.65;8.18;;;7.00;99.90;;;;;;5097810;28;20175;-62
2020/12/15 09:05:46;;;;;;;10.82;7.25;;;7.10;99.90;;;;;;5097423;28;20152;-62
2020/12/15 09:08:12;;;;;;;8.35;6.88;;;7.10;99.90;;;;;;5097489;28;20191;-62
2020/12/15 09:10:37;;;;;;;8.13;6.20;;;7.10;99.90;;;;;;5097044;28;20476;-63
2020/12/15 09:13:04;;;;;;;8.52;6.50;;;7.10;99.90;;;;;;5097463;28;20174;-63
2020/12/15 09:15:30;;;;;;;8.77;7.07;;;7.10;99.90;;;;;;5097543;28;20176;-63
2020/12/15 09:17:56;;;;;;;11.63;7.40;;;7.10;99.90;;;;;;5096735;28;20167;-63
2020/12/15 09:20:26;;;;;;;9.20;6.93;;;7.10;99.90;;;;;;5096839;28;20171;-63
2020/12/15 09:22:52;;;;;;;9.43;7.40;;;7.10;99.90;;;;;;5096561;28;20171;-63
2020/12/15 09:25:18;;;;;;;9.25;7.20;;;7.10;99.90;;;;;;5096789;28;20171;-63
2020/12/15 09:27:47;;;;;;;10.35;7.15;;;7.10;99.90;;;;;;5096201;28;20195;-63
2020/12/15 09:30:15;;;;;;;9.57;7.18;;;7.20;99.90;;;;;;5096854;28;20168;-63
2020/12/15 09:32:41;;;;;;;9.32;7.35;;;7.20;99.90;;;;;;5097087;28;20221;-62
2020/12/15 09:35:08;;;;;;;9.73;7.15;;;7.20;99.90;;;;;;5097035;28;20171;-63
2020/12/15 09:37:34;;;;;;;10.02;7.93;;;7.30;99.90;;;;;;5096799;28;20221;-62
2020/12/15 09:40:01;;;;;;;10.57;7.57;;;7.30;99.90;;;;;;5096876;28;20179;-63
2020/12/15 09:42:27;;;;;;;10.52;7.47;;;7.30;99.90;;;;;;5096999;28;20163;-63
2020/12/15 09:44:52;;;;;;;9.25;7.50;;;7.30;99.90;;;;;;5096522;28;20254;-63
2020/12/15 09:47:18;;;;;;;9.98;8.35;;;7.40;99.90;;;;;;5096579;28;20663;-64
2020/12/15 09:49:43;;;;;;;9.45;7.15;;;7.40;99.90;;;;;;5095937;28;20610;-63
2020/12/15 09:52:09;;;;;;;11.13;7.80;;;7.40;99.90;;;;;;5095714;28;20627;-63
2020/12/15 09:54:34;;;;;;;11.52;7.47;;;7.40;99.90;;;;;;5096542;28;20497;-63
2020/12/15 09:57:00;;;;;;;9.00;7.05;;;7.50;99.90;;;;;;5095870;28;20214;-64
2020/12/15 09:59:26;;;;;;;9.52;7.03;;;7.60;99.90;;;;;;5097217;28;20184;-63
2020/12/15 10:01:52;;;;;;;10.43;7.63;;;7.60;99.90;;;;;;5098332;28;20210;-64
2020/12/15 10:04:17;;;;;;;9.95;7.28;;;7.60;99.90;;;;;;5097841;28;20595;-63
2020/12/15 10:06:43;;;;;;;10.18;7.88;;;7.70;99.90;;;;;;5105633;28;20199;-63
2020/12/15 10:09:08;;;;;;;11.00;7.80;;;7.70;99.90;;;;;;5106212;28;20156;-63
2020/12/15 10:11:34;;;;;;;9.85;7.13;;;7.80;99.90;;;;;;5099702;28;20163;-64
2020/12/15 10:14:00;;;;;;;10.38;7.40;;;7.80;99.90;;;;;;5096084;28;20176;-63
2020/12/15 10:16:26;;;;;;;10.32;7.47;;;7.90;99.90;;;;;;5096313;28;20179;-63
2020/12/15 10:18:52;;;;;;;10.80;7.53;;;7.90;99.90;;;;;;5096053;28;20191;-63
2020/12/15 10:21:18;;;;;;;11.52;7.38;;;8.00;99.90;;;;;;5095600;28;20183;-64
2020/12/15 10:23:47;;;;;;;10.23;7.88;;;8.00;99.90;;;;;;5094773;28;20550;-64
2020/12/15 10:26:12;;;;;;;8.98;7.22;;;8.00;99.90;;;;;;5095577;28;20164;-64
2020/12/15 10:28:38;;;;;;;8.80;6.72;;;8.00;99.90;;;;;;5096019;28;20250;-63
2020/12/15 10:31:03;;;;;;;9.43;7.45;;;8.10;99.90;;;;;;5095858;28;20160;-64
2020/12/15 10:33:29;;;;;;;9.40;6.88;;;8.10;99.90;;;;;;5095926;28;20611;-63
2020/12/15 10:35:55;;;;;;;8.95;6.78;;;8.20;99.90;;;;;;5095809;28;20186;-63
2020/12/15 10:38:20;;;;;;;9.80;7.43;;;8.20;99.90;;;;;;5095852;28;20178;-63
2020/12/15 10:40:47;;;;;;;9.75;7.43;;;8.20;99.90;;;;;;5095462;28;20178;-63
2020/12/15 10:43:13;;;;;;;10.23;7.50;;;8.20;99.90;;;;;;5095690;28;20183;-63
2020/12/15 10:45:38;;;;;;;8.82;7.50;;;8.30;99.90;;;;;;5095420;28;20183;-62
2020/12/15 10:48:04;;;;;;;11.60;7.55;;;8.30;99.90;;;;;;5094464;28;20267;-63
2020/12/15 10:50:29;;;;;;;9.50;7.57;;;8.40;99.90;;;;;;5093294;28;20167;-63
2020/12/15 10:52:56;;;;;;;8.18;6.80;;;8.40;99.90;;;;;;5093122;28;20167;-63
2020/12/15 10:55:22;;;;;;;9.68;7.07;;;8.40;99.90;;;;;;5093284;28;20185;-63
2020/12/15 10:57:47;;;;;;;8.95;7.38;;;8.40;99.90;;;;;;5093061;28;20171;-63
2020/12/15 11:00:13;;;;;;;8.00;7.20;;;8.50;99.90;;;;;;5092953;28;20179;-63
2020/12/15 11:02:38;;;;;;;9.60;7.07;;;8.40;99.90;;;;;;5093558;28;20167;-63
2020/12/15 11:05:04;;;;;;;8.70;6.90;;;8.50;99.90;;;;;;5095395;28;20254;-63
2020/12/15 11:07:30;;;;;;;7.63;6.30;;;8.50;99.90;;;;;;5094868;28;20191;-63
2020/12/15 11:09:55;;;;;;;8.75;6.35;;;8.50;99.90;;;;;;5095200;28;20160;-64
2020/12/15 11:12:21;;;;;;;9.55;7.47;;;8.50;99.90;;;;;;5093885;28;20243;-63
2020/12/15 11:14:46;;;;;;;10.02;6.90;;;8.60;99.90;;;;;;5095708;28;20557;-63
2020/12/15 11:17:12;;;;;;;9.55;7.32;;;8.60;99.90;;;;;;5094898;28;20171;-63
2020/12/15 11:19:37;;;;;;;9.48;7.15;;;8.60;99.90;;;;;;5095233;28;20229;-63
2020/12/15 11:22:03;;;;;;;8.85;6.95;;;8.60;99.90;;;;;;5094855;28;20203;-64
2020/12/15 11:24:29;;;;;;;8.30;6.78;;;8.60;99.90;;;;;;5095144;28;20227;-64
2020/12/15 11:26:54;;;;;;;9.18;7.25;;;8.70;99.90;;;;;;5094597;28;20203;-64
2020/12/15 11:29:20;;;;;;;8.25;6.50;;;8.70;99.90;;;;;;5094386;28;20206;-64
2020/12/15 11:31:50;;;;;;;9.00;6.50;;;8.80;99.90;;;;;;5093976;28;20160;-64
2020/12/15 11:34:15;;;;;;;7.88;6.88;;;8.80;99.90;;;;;;5093638;28;20168;-64
2020/12/15 11:36:41;;;;;;;8.38;6.78;;;8.80;99.90;;;;;;5094608;28;20167;-64
2020/12/15 11:39:06;;;;;;;8.27;6.45;;;8.90;99.90;;;;;;5095057;28;20494;-64
2020/12/15 11:41:32;;;;;;;8.85;6.72;;;8.90;99.90;;;;;;5094629;28;20240;-64
2020/12/15 11:43:57;;;;;;;8.65;6.75;;;8.80;99.90;;;;;;5095473;28;20223;-64
2020/12/15 11:46:23;;;;;;;8.00;6.93;;;8.80;99.90;;;;;;5093308;28;20186;-64
2020/12/15 11:48:48;;;;;;;9.57;6.72;;;8.80;99.90;;;;;;5092496;28;20163;-64
2020/12/15 11:51:20;;;;;;;8.00;6.32;;;8.80;99.90;;;;;;5092432;28;20164;-64
2020/12/15 11:53:47;;;;;;;7.88;6.45;;;8.70;99.90;;;;;;5092516;28;20595;-64
2020/12/15 11:56:16;;;;;;;8.15;6.47;;;8.70;99.90;;;;;;5092690;28;20179;-64
2020/12/15 11:58:41;;;;;;;10.13;7.00;;;8.70;99.90;;;;;;5092452;28;20284;-64
2020/12/15 12:01:07;;;;;;;8.75;6.40;;;8.70;99.90;;;;;;5092952;28;20276;-64
2020/12/15 12:03:32;;;;;;;9.00;7.00;;;8.60;99.90;;;;;;5094575;28;20179;-64
2020/12/15 12:05:58;;;;;;;9.23;7.13;;;8.60;99.90;;;;;;5094442;28;20164;-64
2020/12/15 12:08:23;;;;;;;7.80;6.63;;;8.60;99.90;;;;;;5094602;28;20244;-64
2020/12/15 12:10:49;;;;;;;8.63;7.15;;;8.60;99.90;;;;;;5094575;28;20162;-64
2020/12/15 12:13:14;;;;;;;9.40;6.95;;;8.60;99.90;;;;;;5094468;28;20172;-64
2020/12/15 12:15:40;;;;;;;8.02;6.82;;;8.60;99.90;;;;;;5095008;28;20595;-64
2020/12/15 12:18:05;;;;;;;7.00;6.28;;;8.60;99.90;;;;;;5094398;28;20175;-64
2020/12/15 12:20:34;;;;;;;7.57;6.40;;;8.70;99.90;;;;;;5094794;28;20163;-64
2020/12/15 12:23:00;;;;;;;9.07;6.95;;;8.60;99.90;;;;;;5094332;28;20167;-64
2020/12/15 12:25:25;;;;;;;8.63;6.55;;;8.60;99.90;;;;;;5094518;28;20605;-66
2020/12/15 12:27:51;;;;;;;8.52;6.43;;;8.60;99.90;;;;;;5094145;28;20195;-63
2020/12/15 12:30:16;;;;;;;8.60;6.65;;;8.60;99.90;;;;;;5094624;28;20174;-63
2020/12/15 12:32:42;;;;;;;8.73;6.85;;;8.60;99.90;;;;;;5094164;28;20186;-63
2020/12/15 12:35:07;;;;;;;8.18;6.43;;;8.60;99.90;;;;;;5094600;28;20483;-63
2020/12/15 12:37:33;;;;;;;9.98;6.78;;;8.60;99.90;;;;;;5094171;28;20197;-63
2020/12/15 12:39:58;;;;;;;7.90;6.30;;;8.70;99.90;;;;;;5094473;28;20183;-63
2020/12/15 12:42:24;;;;;;;9.60;6.72;;;8.70;99.90;;;;;;5094403;28;20163;-63
2020/12/15 12:44:49;;;;;;;7.57;6.75;;;8.70;99.90;;;;;;5094484;28;20224;-65
2020/12/15 12:47:15;;;;;;;8.50;7.00;;;8.70;99.90;;;;;;5098219;28;20179;-66
2020/12/15 12:49:40;;;;;;;8.35;6.32;;;8.80;99.90;;;;;;5098548;28;20159;-63
2020/12/15 12:52:06;;;;;;;7.47;6.32;;;8.80;99.90;;;;;;5098037;28;20174;-63